createdAt,value
2023-02-25T00:03:14.968Z,10.23
2023-02-25T00:07:15.883Z,13.73
2023-02-25T00:11:18.805Z,8.73
2023-02-25T00:15:20.018Z,9.20
2023-02-25T00:19:24.798Z,9.40
2023-02-25T00:23:26.584Z,11.83
2023-02-25T00:27:27.857Z,9.43
2023-02-25T00:31:28.869Z,8.97
2023-02-25T00:35:30.030Z,11.20
2023-02-25T00:39:43.067Z,9.63
2023-02-25T00:43:50.355Z,8.00
2023-02-25T00:47:51.463Z,11.10
2023-02-25T00:51:52.548Z,10.50
2023-02-25T00:56:00.982Z,8.93
2023-02-25T01:00:02.302Z,10.30
2023-02-25T01:04:04.337Z,9.33
2023-02-25T01:08:05.573Z,10.83
2023-02-25T01:12:06.982Z,9.47
2023-02-25T01:16:16.086Z,10.30
2023-02-25T01:20:19.194Z,11.43
2023-02-25T01:24:29.514Z,10.87
2023-02-25T01:28:30.673Z,13.63
2023-02-25T01:32:32.322Z,12.67
2023-02-25T01:36:34.379Z,13.53
2023-02-25T01:40:37.289Z,13.13
2023-02-25T01:44:59.571Z,12.77
2023-02-25T01:49:02.783Z,10.67
2023-02-25T01:53:04.304Z,12.33
2023-02-25T01:57:07.664Z,13.10
2023-02-25T02:01:11.889Z,12.23
2023-02-25T02:05:14.537Z,10.20
2023-02-25T02:09:19.450Z,9.47
2023-02-25T02:13:20.762Z,8.43
2023-02-25T02:17:43.855Z,12.20
2023-02-25T02:21:51.543Z,8.73
2023-02-25T02:26:14.173Z,10.03
2023-02-25T02:30:25.686Z,8.50
2023-02-25T02:34:36.317Z,8.50
2023-02-25T02:39:00.793Z,9.30
2023-02-25T02:43:16.973Z,9.00
2023-02-25T02:47:33.930Z,12.07
2023-02-25T02:51:38.706Z,9.90
2023-02-25T02:55:43.068Z,9.50
2023-02-25T02:59:57.087Z,9.23
2023-02-25T03:04:01.861Z,9.20
2023-02-25T03:08:12.855Z,8.37
2023-02-25T03:12:14.961Z,8.77
2023-02-25T03:16:31.863Z,9.37
2023-02-25T03:20:41.828Z,7.83
2023-02-25T03:24:55.450Z,10.03
2023-02-25T03:28:56.693Z,10.03
2023-02-25T03:33:01.607Z,11.70
2023-02-25T03:37:18.252Z,8.50
2023-02-25T03:41:23.114Z,10.97
2023-02-25T03:45:24.576Z,9.67
2023-02-25T03:49:29.387Z,10.03
2023-02-25T03:53:33.854Z,10.47
2023-02-25T03:57:37.899Z,10.00
2023-02-25T04:01:41.007Z,11.53
2023-02-25T04:05:42.009Z,9.83
2023-02-25T04:09:43.026Z,11.63
2023-02-25T04:13:44.196Z,11.30
2023-02-25T04:17:45.377Z,12.13
2023-02-25T04:21:46.574Z,12.27
2023-02-25T04:25:47.586Z,13.67
2023-02-25T04:29:48.751Z,12.70
2023-02-25T04:33:50.076Z,14.00
2023-02-25T04:37:51.176Z,16.27
2023-02-25T04:41:52.187Z,15.33
2023-02-25T04:45:54.387Z,13.23
2023-02-25T04:49:55.380Z,15.40
2023-02-25T04:53:56.525Z,15.27
2023-02-25T04:57:57.743Z,16.73
2023-02-25T05:01:59.476Z,14.67
2023-02-25T05:06:01.238Z,16.20
2023-02-25T05:10:02.379Z,13.13
2023-02-25T05:14:03.538Z,14.30
2023-02-25T05:18:04.784Z,14.57
2023-02-25T05:22:05.838Z,13.67
2023-02-25T05:26:08.132Z,11.50
2023-02-25T05:30:10.674Z,12.27
2023-02-25T05:34:11.808Z,13.63
2023-02-25T05:38:12.949Z,13.33
2023-02-25T05:42:13.965Z,12.47
2023-02-25T05:46:15.097Z,12.37
2023-02-25T05:50:16.390Z,12.73
2023-02-25T05:54:17.490Z,11.50
2023-02-25T05:58:18.611Z,13.40
2023-02-25T06:02:19.917Z,14.27
2023-02-25T06:06:22.588Z,15.87
2023-02-25T06:10:25.358Z,14.00
2023-02-25T06:14:26.534Z,17.63
2023-02-25T06:18:27.564Z,13.73
2023-02-25T06:22:28.708Z,14.10
2023-02-25T06:26:29.942Z,14.20
2023-02-25T06:30:31.114Z,15.03
2023-02-25T06:34:32.259Z,14.53
2023-02-25T06:38:34.451Z,13.13
2023-02-25T06:42:35.819Z,14.37
2023-02-25T06:46:36.841Z,14.03
2023-02-25T06:50:40.100Z,15.43
2023-02-25T06:54:41.322Z,15.77
2023-02-25T06:58:42.990Z,14.37
2023-02-25T07:02:44.159Z,17.33
2023-02-25T07:06:45.550Z,15.50
2023-02-25T07:10:46.544Z,15.60
2023-02-25T07:14:47.875Z,15.97
2023-02-25T07:18:50.197Z,15.97
2023-02-25T07:22:51.219Z,14.50
2023-02-25T07:26:53.454Z,17.30
2023-02-25T07:30:54.557Z,16.40
2023-02-25T07:34:56.057Z,15.50
2023-02-25T07:38:57.038Z,14.67
2023-02-25T07:42:58.096Z,15.10
2023-02-25T07:46:59.095Z,21.70
2023-02-25T07:51:11.985Z,19.23
2023-02-25T07:55:13.076Z,15.87
2023-02-25T07:59:14.190Z,19.60
2023-02-25T08:03:15.374Z,19.20
2023-02-25T08:07:16.790Z,19.33
2023-02-25T08:11:19.595Z,17.90
2023-02-25T08:15:22.715Z,16.70
2023-02-25T08:19:23.909Z,16.90
2023-02-25T08:23:25.408Z,16.30
2023-02-25T08:27:26.952Z,15.57
2023-02-25T08:31:28.711Z,15.80
2023-02-25T08:35:30.018Z,17.07
2023-02-25T08:39:32.899Z,13.60
2023-02-25T08:43:34.961Z,15.83
2023-02-25T08:47:36.441Z,14.50
2023-02-25T08:51:38.386Z,15.07
2023-02-25T08:55:39.356Z,14.43
2023-02-25T08:59:40.513Z,13.27
2023-02-25T09:03:53.396Z,12.17
2023-02-25T09:07:54.853Z,14.93
2023-02-25T09:11:56.963Z,13.03
2023-02-25T09:15:58.740Z,18.93
2023-02-25T09:20:00.646Z,13.67
2023-02-25T09:24:02.014Z,29.97
2023-02-25T09:28:03.082Z,13.57
2023-02-25T09:32:05.828Z,13.67
2023-02-25T09:36:09.912Z,13.03
2023-02-25T09:40:16.440Z,15.03
2023-02-25T09:44:30.361Z,13.03
2023-02-25T09:48:34.245Z,10.80
2023-02-25T09:52:55.739Z,10.47
2023-02-25T09:57:00.167Z,11.80
2023-02-25T10:01:13.222Z,10.00
2023-02-25T10:05:29.897Z,10.33
2023-02-25T10:09:37.836Z,10.80
2023-02-25T10:13:42.610Z,11.33
2023-02-25T10:17:59.574Z,10.43
2023-02-25T10:22:05.718Z,10.87
2023-02-25T10:26:19.687Z,11.90
2023-02-25T10:30:36.491Z,12.30
2023-02-25T10:34:38.585Z,13.63
2023-02-25T10:38:44.793Z,15.47
2023-02-25T10:42:48.252Z,14.80
2023-02-25T10:46:56.003Z,11.93
2023-02-25T10:51:11.527Z,14.40
2023-02-25T10:55:16.490Z,11.77
2023-02-25T10:59:33.579Z,13.57
2023-02-25T11:03:40.900Z,11.97
2023-02-25T11:07:42.045Z,4.17
2023-02-25T11:11:55.834Z,4.07
2023-02-25T11:16:00.648Z,2.63
2023-02-25T11:20:04.358Z,3.63
2023-02-25T11:24:24.060Z,3.17
2023-02-25T11:28:34.607Z,3.00
2023-02-25T11:32:43.537Z,3.43
2023-02-25T11:36:45.894Z,2.67
2023-02-25T11:40:47.678Z,2.30
2023-02-25T11:44:48.751Z,2.73
2023-02-25T11:48:53.317Z,2.63
2023-02-25T11:53:09.268Z,4.33
2023-02-25T11:57:20.219Z,4.37
2023-02-25T12:01:37.113Z,3.83
2023-02-25T12:05:54.224Z,2.90
2023-02-25T12:10:02.638Z,2.70
2023-02-25T12:14:17.256Z,2.57
2023-02-25T12:18:28.155Z,2.50
2023-02-25T12:22:50.749Z,1.93
2023-02-25T12:26:58.700Z,3.00
2023-02-25T12:31:12.651Z,2.50
2023-02-25T12:35:17.447Z,2.00
2023-02-25T12:39:22.269Z,2.57
2023-02-25T12:43:45.295Z,1.63
2023-02-25T12:47:59.332Z,1.60
2023-02-25T12:52:17.504Z,1.80
2023-02-25T12:56:25.538Z,2.50
2023-02-25T13:00:33.465Z,1.73
2023-02-25T13:04:47.368Z,1.40
2023-02-25T13:09:10.470Z,2.37
2023-02-25T13:13:34.644Z,3.10
2023-02-25T13:17:48.211Z,3.27
2023-02-25T13:22:12.934Z,3.50
2023-02-25T13:26:43.788Z,3.17
2023-02-25T13:30:56.623Z,1.87
2023-02-25T13:35:28.368Z,1.67
2023-02-25T13:39:48.095Z,2.10
2023-02-25T13:44:01.138Z,1.80
2023-02-25T13:48:21.162Z,1.60
2023-02-25T13:52:38.251Z,1.73
2023-02-25T13:56:58.438Z,2.20
2023-02-25T14:01:03.548Z,2.30
2023-02-25T14:05:24.137Z,2.07
2023-02-25T14:09:38.018Z,2.60
2023-02-25T14:13:58.408Z,2.00
2023-02-25T14:18:25.757Z,2.23
2023-02-25T14:22:30.730Z,2.60
2023-02-25T14:26:47.360Z,2.67
2023-02-25T14:31:13.639Z,2.20
2023-02-25T14:35:34.258Z,2.87
2023-02-25T14:39:48.241Z,2.70
2023-02-25T14:43:52.033Z,4.67
2023-02-25T14:48:03.180Z,2.50
2023-02-25T14:52:27.768Z,2.17
2023-02-25T14:56:48.468Z,3.40
2023-02-25T15:01:10.103Z,3.20
2023-02-25T15:05:30.166Z,2.50
2023-02-25T15:09:47.028Z,1.70
2023-02-25T15:14:03.775Z,3.00
2023-02-25T15:18:20.751Z,3.10
2023-02-25T15:22:28.681Z,2.47
2023-02-25T15:26:45.821Z,2.97
2023-02-25T15:31:02.841Z,3.70
2023-02-25T15:35:10.229Z,2.93
2023-02-25T15:39:15.084Z,2.10
2023-02-25T15:43:22.007Z,2.17
2023-02-25T15:47:25.903Z,1.70
2023-02-25T15:51:49.089Z,1.97
2023-02-25T15:55:59.423Z,1.83
2023-02-25T16:00:00.465Z,1.80
2023-02-25T16:04:05.397Z,2.17
2023-02-25T16:08:13.379Z,1.90
2023-02-25T16:12:15.814Z,2.40
2023-02-25T16:16:17.968Z,2.37
2023-02-25T16:20:26.280Z,3.10
2023-02-25T16:24:27.915Z,2.60
2023-02-25T16:28:35.738Z,2.70
2023-02-25T16:32:55.669Z,2.37
2023-02-25T16:37:18.670Z,1.90
2023-02-25T16:41:22.247Z,3.23
2023-02-25T16:45:35.857Z,2.47
2023-02-25T16:49:40.216Z,2.00
2023-02-25T16:53:44.701Z,1.60
2023-02-25T16:58:07.667Z,1.70
2023-02-25T17:02:18.741Z,1.73
2023-02-25T17:06:20.219Z,1.63
2023-02-25T17:10:27.737Z,1.80
2023-02-25T17:14:31.860Z,1.40
2023-02-25T17:18:46.060Z,1.60
2023-02-25T17:22:47.150Z,1.87
2023-02-25T17:26:50.317Z,1.53
2023-02-25T17:30:52.472Z,2.17
2023-02-25T17:34:57.299Z,2.03
2023-02-25T17:39:01.513Z,2.33
2023-02-25T17:43:15.290Z,1.60
2023-02-25T17:47:26.325Z,2.00
2023-02-25T17:51:33.321Z,1.70
2023-02-25T17:55:34.384Z,1.93
2023-02-25T17:59:38.619Z,2.12
2023-02-25T18:03:45.434Z,1.90
2023-02-25T18:08:11.104Z,2.00
2023-02-25T18:12:19.219Z,1.93
2023-02-25T18:16:44.007Z,2.33
2023-02-25T18:20:46.840Z,1.97
2023-02-25T18:24:53.959Z,1.80
2023-02-25T18:28:58.013Z,2.80
2023-02-25T18:32:59.593Z,2.37
2023-02-25T18:37:00.921Z,2.00
2023-02-25T18:41:02.121Z,2.67
2023-02-25T18:45:18.686Z,3.03
2023-02-25T18:49:19.696Z,2.20
2023-02-25T18:53:23.350Z,2.50
2023-02-25T18:57:26.193Z,2.33
2023-02-25T19:01:31.205Z,2.10
2023-02-25T19:05:33.198Z,1.93
2023-02-25T19:09:34.194Z,3.20
2023-02-25T19:13:40.059Z,2.47
2023-02-25T19:17:41.601Z,3.00
2023-02-25T19:21:42.760Z,2.30
2023-02-25T19:25:45.842Z,2.73
2023-02-25T19:29:50.015Z,2.93
2023-02-25T19:33:51.204Z,2.10
2023-02-25T19:37:52.630Z,2.67
2023-02-25T19:41:53.710Z,3.55
2023-02-25T19:45:54.680Z,2.73
2023-02-25T19:49:55.729Z,2.70
2023-02-25T19:53:56.899Z,2.37
2023-02-25T19:57:58.085Z,2.50
2023-02-25T20:01:59.095Z,3.70
2023-02-25T20:06:06.869Z,2.90
2023-02-25T20:10:10.325Z,2.73
2023-02-25T20:14:13.325Z,2.07
2023-02-25T20:18:14.529Z,2.57
2023-02-25T20:22:16.383Z,2.60
2023-02-25T20:26:19.529Z,2.70
2023-02-25T20:30:22.305Z,3.00
2023-02-25T20:34:25.678Z,2.60
2023-02-25T20:38:36.517Z,3.03
2023-02-25T20:42:37.801Z,2.97
2023-02-25T20:46:40.295Z,2.70
2023-02-25T20:50:41.925Z,3.40
2023-02-25T20:54:43.174Z,2.70
2023-02-25T20:58:45.617Z,2.80
2023-02-25T21:02:46.885Z,2.97
2023-02-25T21:06:47.924Z,3.00
2023-02-25T21:10:49.277Z,5.70
2023-02-25T21:14:52.226Z,3.87
2023-02-25T21:18:56.279Z,4.47
2023-02-25T21:22:57.463Z,3.67
2023-02-25T21:27:00.289Z,3.40
2023-02-25T21:31:08.290Z,3.90
2023-02-25T21:35:10.160Z,3.50
2023-02-25T21:39:12.041Z,4.17
2023-02-25T21:43:14.855Z,4.23
2023-02-25T21:47:16.032Z,3.23
2023-02-25T21:51:20.663Z,4.43
2023-02-25T21:55:23.200Z,3.40
2023-02-25T21:59:25.496Z,5.60
2023-02-25T22:03:26.599Z,3.20
2023-02-25T22:07:27.655Z,11.30
2023-02-25T22:11:35.314Z,6.63
2023-02-25T22:15:36.500Z,10.77
2023-02-25T22:19:37.870Z,8.07
2023-02-25T22:23:40.186Z,5.03
2023-02-25T22:27:41.381Z,4.93
2023-02-25T22:31:42.589Z,6.73
2023-02-25T22:35:50.444Z,5.77
2023-02-25T22:39:51.597Z,5.60
2023-02-25T22:43:53.440Z,5.73
2023-02-25T22:47:54.570Z,7.27
2023-02-25T22:51:55.989Z,9.87
2023-02-25T22:56:01.955Z,6.03
2023-02-25T23:00:08.829Z,5.07
2023-02-25T23:04:09.874Z,16.13
2023-02-25T23:08:10.968Z,7.07
2023-02-25T23:12:12.201Z,9.67
2023-02-25T23:16:15.406Z,8.93
2023-02-25T23:20:16.804Z,7.60
2023-02-25T23:24:18.950Z,8.80
2023-02-25T23:28:20.050Z,6.30
2023-02-25T23:32:21.198Z,5.20
2023-02-25T23:36:23.641Z,4.33
2023-02-25T23:40:24.875Z,4.10
2023-02-25T23:44:26.169Z,4.03
2023-02-25T23:48:27.342Z,5.27
2023-02-25T23:52:28.345Z,5.47
2023-02-25T23:56:30.706Z,6.10
